sensor_id;sensor_type;location;lat;lon;timestamp;temperature;humidity
31819;DHT22;18384;48.860;9.188;2022-08-19T00:01:46;22.50;90.50
31819;DHT22;18384;48.860;9.188;2022-08-19T00:04:18;22.50;90.50
31819;DHT22;18384;48.860;9.188;2022-08-19T00:06:46;22.40;90.50
31819;DHT22;18384;48.860;9.188;2022-08-19T00:09:15;22.40;90.50
31819;DHT22;18384;48.860;9.188;2022-08-19T00:11:43;22.40;90.50
31819;DHT22;18384;48.860;9.188;2022-08-19T00:14:12;22.40;90.60
31819;DHT22;18384;48.860;9.188;2022-08-19T00:16:41;22.40;90.60
31819;DHT22;18384;48.860;9.188;2022-08-19T00:19:09;22.40;90.80
31819;DHT22;18384;48.860;9.188;2022-08-19T00:21:35;22.40;90.60
31819;DHT22;18384;48.860;9.188;2022-08-19T00:24:06;22.40;90.60
31819;DHT22;18384;48.860;9.188;2022-08-19T00:26:33;22.40;90.50
31819;DHT22;18384;48.860;9.188;2022-08-19T00:28:59;22.40;90.60
31819;DHT22;18384;48.860;9.188;2022-08-19T00:31:26;22.40;90.50
31819;DHT22;18384;48.860;9.188;2022-08-19T00:33:54;22.40;90.60
31819;DHT22;18384;48.860;9.188;2022-08-19T00:36:20;22.40;90.50
31819;DHT22;18384;48.860;9.188;2022-08-19T00:38:46;22.40;90.50
31819;DHT22;18384;48.860;9.188;2022-08-19T00:41:14;22.40;90.50
31819;DHT22;18384;48.860;9.188;2022-08-19T00:43:43;22.40;90.50
31819;DHT22;18384;48.860;9.188;2022-08-19T00:46:21;22.40;90.50
31819;DHT22;18384;48.860;9.188;2022-08-19T00:48:47;22.40;90.50
31819;DHT22;18384;48.860;9.188;2022-08-19T00:51:13;22.40;90.50
31819;DHT22;18384;48.860;9.188;2022-08-19T00:53:39;22.30;90.50
31819;DHT22;18384;48.860;9.188;2022-08-19T00:56:05;22.40;90.60
31819;DHT22;18384;48.860;9.188;2022-08-19T00:58:33;22.30;90.60
31819;DHT22;18384;48.860;9.188;2022-08-19T01:01:01;22.40;90.70
31819;DHT22;18384;48.860;9.188;2022-08-19T01:03:28;22.40;90.60
31819;DHT22;18384;48.860;9.188;2022-08-19T01:05:55;22.40;90.70
31819;DHT22;18384;48.860;9.188;2022-08-19T01:08:22;22.30;90.70
31819;DHT22;18384;48.860;9.188;2022-08-19T01:10:55;23.10;90.90
31819;DHT22;18384;48.860;9.188;2022-08-19T01:13:25;22.40;90.90
31819;DHT22;18384;48.860;9.188;2022-08-19T01:16:05;22.30;90.60
31819;DHT22;18384;48.860;9.188;2022-08-19T01:18:36;22.40;90.70
31819;DHT22;18384;48.860;9.188;2022-08-19T01:21:16;22.40;90.60
31819;DHT22;18384;48.860;9.188;2022-08-19T01:23:56;22.40;90.60
31819;DHT22;18384;48.860;9.188;2022-08-19T01:26:24;22.40;90.50
31819;DHT22;18384;48.860;9.188;2022-08-19T01:28:55;22.30;90.50
31819;DHT22;18384;48.860;9.188;2022-08-19T01:31:24;22.40;90.60
31819;DHT22;18384;48.860;9.188;2022-08-19T01:33:52;22.40;90.70
31819;DHT22;18384;48.860;9.188;2022-08-19T01:36:30;22.30;90.60
31819;DHT22;18384;48.860;9.188;2022-08-19T01:39:00;22.30;90.70
31819;DHT22;18384;48.860;9.188;2022-08-19T01:41:28;22.30;90.80
31819;DHT22;18384;48.860;9.188;2022-08-19T01:43:55;22.20;90.80
31819;DHT22;18384;48.860;9.188;2022-08-19T01:46:22;22.20;91.00
31819;DHT22;18384;48.860;9.188;2022-08-19T01:48:48;22.20;91.00
31819;DHT22;18384;48.860;9.188;2022-08-19T01:51:14;22.20;91.10
31819;DHT22;18384;48.860;9.188;2022-08-19T01:53:41;22.10;91.10
31819;DHT22;18384;48.860;9.188;2022-08-19T01:56:08;22.20;91.10
31819;DHT22;18384;48.860;9.188;2022-08-19T01:58:41;22.20;91.10
31819;DHT22;18384;48.860;9.188;2022-08-19T02:01:12;22.20;91.10
31819;DHT22;18384;48.860;9.188;2022-08-19T02:03:39;22.20;91.20
31819;DHT22;18384;48.860;9.188;2022-08-19T02:06:06;22.10;91.20
31819;DHT22;18384;48.860;9.188;2022-08-19T02:08:35;22.10;91.20
31819;DHT22;18384;48.860;9.188;2022-08-19T02:11:03;22.10;91.30
31819;DHT22;18384;48.860;9.188;2022-08-19T02:13:30;22.10;91.40
31819;DHT22;18384;48.860;9.188;2022-08-19T02:15:56;22.10;91.50
31819;DHT22;18384;48.860;9.188;2022-08-19T02:18:23;22.10;91.50
31819;DHT22;18384;48.860;9.188;2022-08-19T02:20:49;22.10;91.50
31819;DHT22;18384;48.860;9.188;2022-08-19T02:23:17;22.00;91.50
31819;DHT22;18384;48.860;9.188;2022-08-19T02:25:45;22.10;91.50
31819;DHT22;18384;48.860;9.188;2022-08-19T02:28:13;22.10;91.50
31819;DHT22;18384;48.860;9.188;2022-08-19T02:30:41;22.00;91.70
31819;DHT22;18384;48.860;9.188;2022-08-19T02:33:07;22.00;91.90
31819;DHT22;18384;48.860;9.188;2022-08-19T02:35:34;21.90;91.70
31819;DHT22;18384;48.860;9.188;2022-08-19T02:38:00;21.90;91.70
31819;DHT22;18384;48.860;9.188;2022-08-19T02:40:58;21.90;91.80
31819;DHT22;18384;48.860;9.188;2022-08-19T02:43:30;21.90;91.80
31819;DHT22;18384;48.860;9.188;2022-08-19T02:45:57;21.90;91.90
31819;DHT22;18384;48.860;9.188;2022-08-19T02:48:25;21.90;91.90
31819;DHT22;18384;48.860;9.188;2022-08-19T02:50:52;21.90;91.90
31819;DHT22;18384;48.860;9.188;2022-08-19T02:53:23;21.80;92.00
31819;DHT22;18384;48.860;9.188;2022-08-19T02:55:51;21.90;92.00
31819;DHT22;18384;48.860;9.188;2022-08-19T02:58:19;21.80;91.90
31819;DHT22;18384;48.860;9.188;2022-08-19T03:00:52;21.80;91.90
31819;DHT22;18384;48.860;9.188;2022-08-19T03:03:20;21.80;92.00
31819;DHT22;18384;48.860;9.188;2022-08-19T03:05:47;21.80;92.00
31819;DHT22;18384;48.860;9.188;2022-08-19T03:08:13;21.80;92.10
31819;DHT22;18384;48.860;9.188;2022-08-19T03:10:41;21.80;92.10
31819;DHT22;18384;48.860;9.188;2022-08-19T03:13:14;21.80;92.10
31819;DHT22;18384;48.860;9.188;2022-08-19T03:15:43;21.80;92.20
31819;DHT22;18384;48.860;9.188;2022-08-19T03:18:10;21.80;92.30
31819;DHT22;18384;48.860;9.188;2022-08-19T03:20:44;21.80;92.30
31819;DHT22;18384;48.860;9.188;2022-08-19T03:23:14;21.80;92.30
31819;DHT22;18384;48.860;9.188;2022-08-19T03:25:44;21.70;92.30
31819;DHT22;18384;48.860;9.188;2022-08-19T03:28:14;21.70;92.40
31819;DHT22;18384;48.860;9.188;2022-08-19T03:30:42;21.60;92.40
31819;DHT22;18384;48.860;9.188;2022-08-19T03:33:10;21.70;92.40
31819;DHT22;18384;48.860;9.188;2022-08-19T03:35:39;21.60;92.40
31819;DHT22;18384;48.860;9.188;2022-08-19T03:38:05;21.60;92.40
31819;DHT22;18384;48.860;9.188;2022-08-19T03:40:36;21.50;92.40
31819;DHT22;18384;48.860;9.188;2022-08-19T03:43:02;21.50;92.50
31819;DHT22;18384;48.860;9.188;2022-08-19T03:45:28;21.50;92.60
31819;DHT22;18384;48.860;9.188;2022-08-19T03:47:55;21.50;92.60
31819;DHT22;18384;48.860;9.188;2022-08-19T03:50:21;21.40;92.60
31819;DHT22;18384;48.860;9.188;2022-08-19T03:52:48;21.40;92.60
31819;DHT22;18384;48.860;9.188;2022-08-19T03:55:16;21.50;92.70
31819;DHT22;18384;48.860;9.188;2022-08-19T03:57:43;21.40;92.70
31819;DHT22;18384;48.860;9.188;2022-08-19T04:00:11;21.40;92.80
31819;DHT22;18384;48.860;9.188;2022-08-19T04:02:38;21.40;92.80
31819;DHT22;18384;48.860;9.188;2022-08-19T04:05:04;21.40;92.80
31819;DHT22;18384;48.860;9.188;2022-08-19T04:07:31;21.40;92.90
31819;DHT22;18384;48.860;9.188;2022-08-19T04:09:57;21.40;92.80
31819;DHT22;18384;48.860;9.188;2022-08-19T04:12:23;21.40;92.80
31819;DHT22;18384;48.860;9.188;2022-08-19T04:14:49;21.40;92.80
31819;DHT22;18384;48.860;9.188;2022-08-19T04:17:15;21.40;93.10
31819;DHT22;18384;48.860;9.188;2022-08-19T04:19:41;21.40;92.80
31819;DHT22;18384;48.860;9.188;2022-08-19T04:22:08;21.40;92.80
31819;DHT22;18384;48.860;9.188;2022-08-19T04:24:36;21.40;92.80
31819;DHT22;18384;48.860;9.188;2022-08-19T04:27:02;21.40;92.80
31819;DHT22;18384;48.860;9.188;2022-08-19T04:29:29;21.40;92.80
31819;DHT22;18384;48.860;9.188;2022-08-19T04:31:57;21.40;92.90
31819;DHT22;18384;48.860;9.188;2022-08-19T04:34:25;21.30;92.90
31819;DHT22;18384;48.860;9.188;2022-08-19T04:36:56;21.30;93.00
31819;DHT22;18384;48.860;9.188;2022-08-19T04:39:26;21.30;93.00
31819;DHT22;18384;48.860;9.188;2022-08-19T04:42:14;21.30;93.00
31819;DHT22;18384;48.860;9.188;2022-08-19T04:44:59;21.30;93.00
31819;DHT22;18384;48.860;9.188;2022-08-19T04:47:26;21.30;93.10
31819;DHT22;18384;48.860;9.188;2022-08-19T04:49:52;21.30;93.10
31819;DHT22;18384;48.860;9.188;2022-08-19T04:52:18;21.30;93.00
31819;DHT22;18384;48.860;9.188;2022-08-19T04:54:44;21.30;93.00
31819;DHT22;18384;48.860;9.188;2022-08-19T04:57:10;21.30;93.00
31819;DHT22;18384;48.860;9.188;2022-08-19T04:59:38;21.30;92.90
31819;DHT22;18384;48.860;9.188;2022-08-19T05:02:06;21.40;92.90
31819;DHT22;18384;48.860;9.188;2022-08-19T05:04:33;21.40;92.90
31819;DHT22;18384;48.860;9.188;2022-08-19T05:07:01;21.40;93.00
31819;DHT22;18384;48.860;9.188;2022-08-19T05:09:28;21.30;93.00
31819;DHT22;18384;48.860;9.188;2022-08-19T05:11:55;21.40;93.10
31819;DHT22;18384;48.860;9.188;2022-08-19T05:14:20;21.30;93.10
31819;DHT22;18384;48.860;9.188;2022-08-19T05:16:47;21.30;93.10
31819;DHT22;18384;48.860;9.188;2022-08-19T05:19:13;21.30;93.10
31819;DHT22;18384;48.860;9.188;2022-08-19T05:21:59;21.30;93.10
31819;DHT22;18384;48.860;9.188;2022-08-19T05:24:44;21.30;93.10
31819;DHT22;18384;48.860;9.188;2022-08-19T05:27:11;21.30;93.10
31819;DHT22;18384;48.860;9.188;2022-08-19T05:29:37;21.30;93.10
31819;DHT22;18384;48.860;9.188;2022-08-19T05:32:04;21.20;93.30
31819;DHT22;18384;48.860;9.188;2022-08-19T05:34:36;21.30;93.20
31819;DHT22;18384;48.860;9.188;2022-08-19T05:37:04;21.30;93.30
31819;DHT22;18384;48.860;9.188;2022-08-19T05:39:33;21.30;93.20
31819;DHT22;18384;48.860;9.188;2022-08-19T05:42:03;21.30;93.20
31819;DHT22;18384;48.860;9.188;2022-08-19T05:44:34;21.40;93.20
31819;DHT22;18384;48.860;9.188;2022-08-19T05:47:04;21.40;93.10
31819;DHT22;18384;48.860;9.188;2022-08-19T05:49:34;21.50;93.10
31819;DHT22;18384;48.860;9.188;2022-08-19T05:52:07;21.50;93.10
31819;DHT22;18384;48.860;9.188;2022-08-19T05:54:38;21.40;93.10
31819;DHT22;18384;48.860;9.188;2022-08-19T05:57:07;21.50;93.00
31819;DHT22;18384;48.860;9.188;2022-08-19T05:59:34;21.50;93.00
31819;DHT22;18384;48.860;9.188;2022-08-19T06:02:05;21.50;93.00
31819;DHT22;18384;48.860;9.188;2022-08-19T06:04:32;21.50;93.00
31819;DHT22;18384;48.860;9.188;2022-08-19T06:06:59;21.50;93.00
31819;DHT22;18384;48.860;9.188;2022-08-19T06:09:26;21.50;93.00
31819;DHT22;18384;48.860;9.188;2022-08-19T06:11:57;21.50;92.90
31819;DHT22;18384;48.860;9.188;2022-08-19T06:14:27;21.60;92.90
31819;DHT22;18384;48.860;9.188;2022-08-19T06:16:57;21.60;92.90
31819;DHT22;18384;48.860;9.188;2022-08-19T06:19:29;21.50;92.90
31819;DHT22;18384;48.860;9.188;2022-08-19T06:21:56;21.50;93.00
31819;DHT22;18384;48.860;9.188;2022-08-19T06:24:25;21.50;93.00
31819;DHT22;18384;48.860;9.188;2022-08-19T06:26:54;21.50;92.90
31819;DHT22;18384;48.860;9.188;2022-08-19T06:29:23;21.60;92.90
31819;DHT22;18384;48.860;9.188;2022-08-19T06:31:53;21.60;92.80
31819;DHT22;18384;48.860;9.188;2022-08-19T06:34:22;21.50;92.90
31819;DHT22;18384;48.860;9.188;2022-08-19T06:36:50;21.50;92.80
31819;DHT22;18384;48.860;9.188;2022-08-19T06:39:19;21.60;92.80
31819;DHT22;18384;48.860;9.188;2022-08-19T06:41:53;21.50;93.00
31819;DHT22;18384;48.860;9.188;2022-08-19T06:44:24;21.50;93.10
31819;DHT22;18384;48.860;9.188;2022-08-19T06:46:55;21.50;93.20
31819;DHT22;18384;48.860;9.188;2022-08-19T06:49:22;21.60;93.30
31819;DHT22;18384;48.860;9.188;2022-08-19T06:51:50;21.50;93.50
31819;DHT22;18384;48.860;9.188;2022-08-19T06:54:18;21.50;93.50
31819;DHT22;18384;48.860;9.188;2022-08-19T06:56:44;21.40;93.70
31819;DHT22;18384;48.860;9.188;2022-08-19T06:59:20;21.50;93.80
31819;DHT22;18384;48.860;9.188;2022-08-19T07:01:51;21.50;93.80
31819;DHT22;18384;48.860;9.188;2022-08-19T07:04:21;21.60;93.70
31819;DHT22;18384;48.860;9.188;2022-08-19T07:06:55;21.60;93.40
31819;DHT22;18384;48.860;9.188;2022-08-19T07:09:23;21.60;93.40
31819;DHT22;18384;48.860;9.188;2022-08-19T07:11:50;21.70;93.30
31819;DHT22;18384;48.860;9.188;2022-08-19T07:14:20;21.70;93.20
31819;DHT22;18384;48.860;9.188;2022-08-19T07:16:49;21.70;93.10
31819;DHT22;18384;48.860;9.188;2022-08-19T07:19:18;21.70;93.10
31819;DHT22;18384;48.860;9.188;2022-08-19T07:21:48;21.80;93.20
31819;DHT22;18384;48.860;9.188;2022-08-19T07:24:16;21.80;93.10
31819;DHT22;18384;48.860;9.188;2022-08-19T07:26:43;21.90;92.90
31819;DHT22;18384;48.860;9.188;2022-08-19T07:29:11;21.80;92.90
31819;DHT22;18384;48.860;9.188;2022-08-19T07:31:38;21.80;92.80
31819;DHT22;18384;48.860;9.188;2022-08-19T07:34:06;21.70;92.80
31819;DHT22;18384;48.860;9.188;2022-08-19T07:36:36;21.60;92.90
31819;DHT22;18384;48.860;9.188;2022-08-19T07:39:23;21.60;93.00
31819;DHT22;18384;48.860;9.188;2022-08-19T07:41:53;21.60;93.10
31819;DHT22;18384;48.860;9.188;2022-08-19T07:44:21;21.60;93.00
31819;DHT22;18384;48.860;9.188;2022-08-19T07:46:51;21.50;93.00
31819;DHT22;18384;48.860;9.188;2022-08-19T07:49:20;21.60;93.00
31819;DHT22;18384;48.860;9.188;2022-08-19T07:51:49;21.60;93.00
31819;DHT22;18384;48.860;9.188;2022-08-19T07:54:19;21.60;93.10
31819;DHT22;18384;48.860;9.188;2022-08-19T07:56:46;21.60;93.10
31819;DHT22;18384;48.860;9.188;2022-08-19T07:59:12;21.50;93.00
31819;DHT22;18384;48.860;9.188;2022-08-19T08:01:39;21.50;93.10
31819;DHT22;18384;48.860;9.188;2022-08-19T08:04:06;21.50;93.10
31819;DHT22;18384;48.860;9.188;2022-08-19T08:06:52;21.50;93.20
31819;DHT22;18384;48.860;9.188;2022-08-19T08:09:40;21.60;93.50
31819;DHT22;18384;48.860;9.188;2022-08-19T08:12:16;21.50;93.50
31819;DHT22;18384;48.860;9.188;2022-08-19T08:14:47;21.50;93.60
31819;DHT22;18384;48.860;9.188;2022-08-19T08:17:16;21.50;93.70
31819;DHT22;18384;48.860;9.188;2022-08-19T08:19:45;21.50;93.60
31819;DHT22;18384;48.860;9.188;2022-08-19T08:22:15;21.50;93.50
31819;DHT22;18384;48.860;9.188;2022-08-19T08:25:08;21.50;93.40
31819;DHT22;18384;48.860;9.188;2022-08-19T08:27:38;21.50;93.50
31819;DHT22;18384;48.860;9.188;2022-08-19T08:30:23;21.50;93.80
31819;DHT22;18384;48.860;9.188;2022-08-19T08:32:50;21.50;94.10
31819;DHT22;18384;48.860;9.188;2022-08-19T08:35:20;21.50;94.30
31819;DHT22;18384;48.860;9.188;2022-08-19T08:37:48;21.50;94.30
31819;DHT22;18384;48.860;9.188;2022-08-19T08:41:03;21.50;94.40
31819;DHT22;18384;48.860;9.188;2022-08-19T08:43:37;21.50;94.30
31819;DHT22;18384;48.860;9.188;2022-08-19T08:46:15;21.60;94.30
31819;DHT22;18384;48.860;9.188;2022-08-19T08:49:22;21.70;94.30
31819;DHT22;18384;48.860;9.188;2022-08-19T08:52:31;21.70;94.20
31819;DHT22;18384;48.860;9.188;2022-08-19T08:55:06;21.80;94.40
31819;DHT22;18384;48.860;9.188;2022-08-19T08:59:20;21.80;94.20
31819;DHT22;18384;48.860;9.188;2022-08-19T09:01:49;21.90;93.90
31819;DHT22;18384;48.860;9.188;2022-08-19T09:04:15;21.90;93.80
31819;DHT22;18384;48.860;9.188;2022-08-19T09:17:41;21.90;93.70
31819;DHT22;18384;48.860;9.188;2022-08-19T09:20:18;22.10;93.70
31819;DHT22;18384;48.860;9.188;2022-08-19T09:22:46;22.20;93.70
31819;DHT22;18384;48.860;9.188;2022-08-19T09:25:18;22.20;93.30
31819;DHT22;18384;48.860;9.188;2022-08-19T09:27:49;22.30;93.50
31819;DHT22;18384;48.860;9.188;2022-08-19T09:30:20;22.30;93.50
31819;DHT22;18384;48.860;9.188;2022-08-19T09:32:49;22.30;93.30
31819;DHT22;18384;48.860;9.188;2022-08-19T09:35:19;22.40;93.20
31819;DHT22;18384;48.860;9.188;2022-08-19T09:37:50;22.40;93.20
31819;DHT22;18384;48.860;9.188;2022-08-19T09:40:18;22.50;93.30
31819;DHT22;18384;48.860;9.188;2022-08-19T09:42:45;22.50;93.20
31819;DHT22;18384;48.860;9.188;2022-08-19T09:45:17;22.60;93.10
31819;DHT22;18384;48.860;9.188;2022-08-19T09:47:45;22.50;93.00
31819;DHT22;18384;48.860;9.188;2022-08-19T09:50:12;22.50;93.00
31819;DHT22;18384;48.860;9.188;2022-08-19T09:52:38;22.60;93.00
31819;DHT22;18384;48.860;9.188;2022-08-19T09:55:06;22.50;93.00
31819;DHT22;18384;48.860;9.188;2022-08-19T09:57:34;22.60;93.00
31819;DHT22;18384;48.860;9.188;2022-08-19T10:00:00;22.60;92.90
31819;DHT22;18384;48.860;9.188;2022-08-19T10:02:28;22.60;92.90
31819;DHT22;18384;48.860;9.188;2022-08-19T10:04:54;22.60;92.90
31819;DHT22;18384;48.860;9.188;2022-08-19T10:07:39;22.60;92.90
31819;DHT22;18384;48.860;9.188;2022-08-19T10:10:05;22.60;92.80
31819;DHT22;18384;48.860;9.188;2022-08-19T10:12:33;22.60;92.90
31819;DHT22;18384;48.860;9.188;2022-08-19T10:15:00;22.60;92.90
31819;DHT22;18384;48.860;9.188;2022-08-19T10:17:27;22.60;92.90
31819;DHT22;18384;48.860;9.188;2022-08-19T10:19:53;22.60;92.90
31819;DHT22;18384;48.860;9.188;2022-08-19T10:22:20;22.60;92.80
31819;DHT22;18384;48.860;9.188;2022-08-19T10:24:46;22.70;92.90
31819;DHT22;18384;48.860;9.188;2022-08-19T10:27:12;22.70;92.80
31819;DHT22;18384;48.860;9.188;2022-08-19T10:29:40;22.70;92.70
31819;DHT22;18384;48.860;9.188;2022-08-19T10:32:08;22.70;92.70
31819;DHT22;18384;48.860;9.188;2022-08-19T10:34:36;22.80;92.60
31819;DHT22;18384;48.860;9.188;2022-08-19T10:37:03;22.90;92.50
31819;DHT22;18384;48.860;9.188;2022-08-19T10:39:35;22.90;92.40
31819;DHT22;18384;48.860;9.188;2022-08-19T10:42:06;23.00;92.40
31819;DHT22;18384;48.860;9.188;2022-08-19T10:44:33;23.00;92.10
31819;DHT22;18384;48.860;9.188;2022-08-19T10:47:02;23.00;92.00
31819;DHT22;18384;48.860;9.188;2022-08-19T10:49:28;22.90;92.00
31819;DHT22;18384;48.860;9.188;2022-08-19T10:51:55;22.90;91.80
31819;DHT22;18384;48.860;9.188;2022-08-19T10:54:40;23.00;91.80
31819;DHT22;18384;48.860;9.188;2022-08-19T10:57:24;23.00;91.50
31819;DHT22;18384;48.860;9.188;2022-08-19T10:59:55;23.10;91.30
31819;DHT22;18384;48.860;9.188;2022-08-19T11:02:22;23.10;91.20
31819;DHT22;18384;48.860;9.188;2022-08-19T11:04:48;23.30;91.00
31819;DHT22;18384;48.860;9.188;2022-08-19T11:07:16;23.40;90.80
31819;DHT22;18384;48.860;9.188;2022-08-19T11:09:42;23.60;90.80
31819;DHT22;18384;48.860;9.188;2022-08-19T11:12:09;23.70;90.30
31819;DHT22;18384;48.860;9.188;2022-08-19T11:14:36;23.90;90.00
31819;DHT22;18384;48.860;9.188;2022-08-19T11:17:04;23.90;89.50
31819;DHT22;18384;48.860;9.188;2022-08-19T11:19:31;24.00;89.20
31819;DHT22;18384;48.860;9.188;2022-08-19T11:21:59;24.10;89.40
31819;DHT22;18384;48.860;9.188;2022-08-19T11:24:27;24.10;89.30
31819;DHT22;18384;48.860;9.188;2022-08-19T11:26:55;24.00;89.30
31819;DHT22;18384;48.860;9.188;2022-08-19T11:29:28;24.10;89.20
31819;DHT22;18384;48.860;9.188;2022-08-19T11:31:55;24.00;89.10
31819;DHT22;18384;48.860;9.188;2022-08-19T11:34:23;24.10;88.70
31819;DHT22;18384;48.860;9.188;2022-08-19T11:36:51;24.00;88.60
31819;DHT22;18384;48.860;9.188;2022-08-19T11:39:20;24.10;88.50
31819;DHT22;18384;48.860;9.188;2022-08-19T11:41:47;24.10;88.50
31819;DHT22;18384;48.860;9.188;2022-08-19T11:44:14;24.10;88.30
31819;DHT22;18384;48.860;9.188;2022-08-19T11:46:42;24.00;88.30
31819;DHT22;18384;48.860;9.188;2022-08-19T11:49:13;24.00;88.30
31819;DHT22;18384;48.860;9.188;2022-08-19T11:51:41;24.00;88.60
31819;DHT22;18384;48.860;9.188;2022-08-19T11:54:12;23.80;88.90
31819;DHT22;18384;48.860;9.188;2022-08-19T11:56:40;23.70;89.00
31819;DHT22;18384;48.860;9.188;2022-08-19T11:59:06;23.70;89.30
31819;DHT22;18384;48.860;9.188;2022-08-19T12:01:34;23.70;89.20
31819;DHT22;18384;48.860;9.188;2022-08-19T12:04:00;23.70;89.10
31819;DHT22;18384;48.860;9.188;2022-08-19T12:06:27;23.70;89.40
31819;DHT22;18384;48.860;9.188;2022-08-19T12:08:57;23.70;89.10
31819;DHT22;18384;48.860;9.188;2022-08-19T12:11:25;23.60;88.90
31819;DHT22;18384;48.860;9.188;2022-08-19T12:13:51;23.70;89.00
31819;DHT22;18384;48.860;9.188;2022-08-19T12:16:24;23.70;88.80
31819;DHT22;18384;48.860;9.188;2022-08-19T12:18:55;23.70;88.70
31819;DHT22;18384;48.860;9.188;2022-08-19T12:21:27;23.80;89.00
31819;DHT22;18384;48.860;9.188;2022-08-19T12:23:55;23.80;88.30
31819;DHT22;18384;48.860;9.188;2022-08-19T12:26:23;23.90;88.00
31819;DHT22;18384;48.860;9.188;2022-08-19T12:28:51;24.00;87.70
31819;DHT22;18384;48.860;9.188;2022-08-19T12:31:17;24.10;87.50
31819;DHT22;18384;48.860;9.188;2022-08-19T12:33:45;24.20;86.80
31819;DHT22;18384;48.860;9.188;2022-08-19T12:36:14;24.30;86.40
31819;DHT22;18384;48.860;9.188;2022-08-19T12:38:41;24.40;86.30
31819;DHT22;18384;48.860;9.188;2022-08-19T12:41:11;24.40;86.30
31819;DHT22;18384;48.860;9.188;2022-08-19T12:43:39;24.50;86.30
31819;DHT22;18384;48.860;9.188;2022-08-19T12:46:07;24.60;86.70
31819;DHT22;18384;48.860;9.188;2022-08-19T12:48:35;24.50;85.20
31819;DHT22;18384;48.860;9.188;2022-08-19T12:51:07;24.50;84.70
31819;DHT22;18384;48.860;9.188;2022-08-19T12:53:36;24.40;84.80
31819;DHT22;18384;48.860;9.188;2022-08-19T12:56:03;24.40;84.50
31819;DHT22;18384;48.860;9.188;2022-08-19T12:58:30;24.30;84.50
31819;DHT22;18384;48.860;9.188;2022-08-19T13:00:57;24.30;84.40
31819;DHT22;18384;48.860;9.188;2022-08-19T13:03:23;24.20;84.40
31819;DHT22;18384;48.860;9.188;2022-08-19T13:05:54;24.20;85.10
31819;DHT22;18384;48.860;9.188;2022-08-19T13:08:21;24.10;85.00
31819;DHT22;18384;48.860;9.188;2022-08-19T13:10:47;24.10;84.80
31819;DHT22;18384;48.860;9.188;2022-08-19T13:13:13;24.20;84.80
31819;DHT22;18384;48.860;9.188;2022-08-19T13:15:40;24.10;84.50
31819;DHT22;18384;48.860;9.188;2022-08-19T13:18:09;24.10;84.50
31819;DHT22;18384;48.860;9.188;2022-08-19T13:20:38;24.10;84.60
31819;DHT22;18384;48.860;9.188;2022-08-19T13:23:07;24.00;85.10
31819;DHT22;18384;48.860;9.188;2022-08-19T13:25:34;24.10;85.10
31819;DHT22;18384;48.860;9.188;2022-08-19T13:28:02;24.10;85.40
31819;DHT22;18384;48.860;9.188;2022-08-19T13:30:28;24.00;90.10
31819;DHT22;18384;48.860;9.188;2022-08-19T13:33:13;24.00;91.10
31819;DHT22;18384;48.860;9.188;2022-08-19T13:35:50;23.90;91.70
31819;DHT22;18384;48.860;9.188;2022-08-19T13:38:23;24.00;92.10
31819;DHT22;18384;48.860;9.188;2022-08-19T13:40:50;23.90;92.80
31819;DHT22;18384;48.860;9.188;2022-08-19T13:43:19;23.90;92.80
31819;DHT22;18384;48.860;9.188;2022-08-19T13:45:48;23.70;93.10
31819;DHT22;18384;48.860;9.188;2022-08-19T13:48:21;23.70;93.40
31819;DHT22;18384;48.860;9.188;2022-08-19T13:50:47;23.60;94.20
31819;DHT22;18384;48.860;9.188;2022-08-19T13:53:14;23.40;94.70
31819;DHT22;18384;48.860;9.188;2022-08-19T13:55:42;23.30;95.20
31819;DHT22;18384;48.860;9.188;2022-08-19T13:58:10;23.20;95.80
31819;DHT22;18384;48.860;9.188;2022-08-19T14:00:42;23.10;96.30
31819;DHT22;18384;48.860;9.188;2022-08-19T14:03:09;23.00;96.40
31819;DHT22;18384;48.860;9.188;2022-08-19T14:05:35;23.00;96.50
31819;DHT22;18384;48.860;9.188;2022-08-19T14:08:02;22.90;96.90
31819;DHT22;18384;48.860;9.188;2022-08-19T14:10:29;22.80;97.10
31819;DHT22;18384;48.860;9.188;2022-08-19T14:12:59;22.80;97.30
31819;DHT22;18384;48.860;9.188;2022-08-19T14:15:27;22.80;97.40
31819;DHT22;18384;48.860;9.188;2022-08-19T14:17:53;22.80;97.40
31819;DHT22;18384;48.860;9.188;2022-08-19T14:20:20;22.90;97.30
31819;DHT22;18384;48.860;9.188;2022-08-19T14:22:47;23.00;97.10
31819;DHT22;18384;48.860;9.188;2022-08-19T14:25:20;23.10;97.00
31819;DHT22;18384;48.860;9.188;2022-08-19T14:27:51;23.10;96.90
31819;DHT22;18384;48.860;9.188;2022-08-19T14:30:22;23.10;96.80
31819;DHT22;18384;48.860;9.188;2022-08-19T14:33:00;23.10;96.90
31819;DHT22;18384;48.860;9.188;2022-08-19T14:35:28;23.10;96.80
31819;DHT22;18384;48.860;9.188;2022-08-19T14:37:56;23.10;96.80
31819;DHT22;18384;48.860;9.188;2022-08-19T14:40:25;23.10;96.90
31819;DHT22;18384;48.860;9.188;2022-08-19T14:42:53;23.00;97.10
31819;DHT22;18384;48.860;9.188;2022-08-19T14:45:28;22.90;97.10
31819;DHT22;18384;48.860;9.188;2022-08-19T14:47:54;22.90;97.50
31819;DHT22;18384;48.860;9.188;2022-08-19T14:50:20;22.80;97.60
31819;DHT22;18384;48.860;9.188;2022-08-19T14:52:48;22.90;97.50
31819;DHT22;18384;48.860;9.188;2022-08-19T14:55:18;22.90;97.40
31819;DHT22;18384;48.860;9.188;2022-08-19T14:57:44;23.00;97.60
31819;DHT22;18384;48.860;9.188;2022-08-19T15:00:11;23.20;97.60
31819;DHT22;18384;48.860;9.188;2022-08-19T15:02:39;23.30;97.30
31819;DHT22;18384;48.860;9.188;2022-08-19T15:05:06;23.50;97.30
31819;DHT22;18384;48.860;9.188;2022-08-19T15:07:33;23.60;97.20
31819;DHT22;18384;48.860;9.188;2022-08-19T15:09:59;23.70;97.10
31819;DHT22;18384;48.860;9.188;2022-08-19T15:12:25;23.80;96.60
31819;DHT22;18384;48.860;9.188;2022-08-19T15:14:51;23.90;96.50
31819;DHT22;18384;48.860;9.188;2022-08-19T15:17:18;24.00;96.10
31819;DHT22;18384;48.860;9.188;2022-08-19T15:19:44;23.90;96.20
31819;DHT22;18384;48.860;9.188;2022-08-19T15:22:11;24.00;96.10
31819;DHT22;18384;48.860;9.188;2022-08-19T15:24:37;24.00;96.10
31819;DHT22;18384;48.860;9.188;2022-08-19T15:27:04;24.10;96.00
31819;DHT22;18384;48.860;9.188;2022-08-19T15:29:31;24.00;96.00
31819;DHT22;18384;48.860;9.188;2022-08-19T15:31:58;24.00;95.80
31819;DHT22;18384;48.860;9.188;2022-08-19T15:34:25;24.00;95.80
31819;DHT22;18384;48.860;9.188;2022-08-19T15:36:52;23.90;95.70
31819;DHT22;18384;48.860;9.188;2022-08-19T15:39:18;23.90;95.80
31819;DHT22;18384;48.860;9.188;2022-08-19T15:41:45;23.90;95.80
31819;DHT22;18384;48.860;9.188;2022-08-19T15:44:14;23.90;95.90
31819;DHT22;18384;48.860;9.188;2022-08-19T15:46:44;23.90;95.70
31819;DHT22;18384;48.860;9.188;2022-08-19T15:49:15;23.90;95.90
31819;DHT22;18384;48.860;9.188;2022-08-19T15:51:44;24.00;95.50
31819;DHT22;18384;48.860;9.188;2022-08-19T15:54:16;24.00;95.40
31819;DHT22;18384;48.860;9.188;2022-08-19T15:56:47;23.90;95.00